createdAt,value
2018-04-25T00:00:18.998Z,37.60
2018-04-25T00:02:46.036Z,37.50
2018-04-25T00:05:13.390Z,39.10
2018-04-25T00:07:40.445Z,43.73
2018-04-25T00:10:07.595Z,39.63
2018-04-25T00:12:34.639Z,39.70
2018-04-25T00:15:01.688Z,42.47
2018-04-25T00:17:28.749Z,38.70
2018-04-25T00:19:55.785Z,36.93
2018-04-25T00:22:22.833Z,33.90
2018-04-25T00:24:49.888Z,40.27
2018-04-25T00:27:16.890Z,34.73
2018-04-25T00:29:43.881Z,37.00
2018-04-25T00:32:10.875Z,39.00
2018-04-25T00:34:37.879Z,37.80
2018-04-25T00:37:04.919Z,48.20
2018-04-25T00:39:31.971Z,36.60
2018-04-25T00:41:59.022Z,35.27
2018-04-25T00:44:26.034Z,36.40
2018-04-25T00:46:53.017Z,37.80
2018-04-25T00:49:20.060Z,42.27
2018-04-25T00:51:47.110Z,43.87
2018-04-25T00:54:14.163Z,41.07
2018-04-25T00:56:41.205Z,43.13
2018-04-25T00:59:08.257Z,37.13
2018-04-25T01:01:35.308Z,37.53
2018-04-25T01:04:02.351Z,40.73
2018-04-25T01:06:29.809Z,42.17
2018-04-25T01:08:57.779Z,40.73
2018-04-25T01:11:24.725Z,42.50
2018-04-25T01:13:51.877Z,39.97
2018-04-25T01:16:19.027Z,40.27
2018-04-25T01:18:46.077Z,46.27
2018-04-25T01:21:14.458Z,37.63
2018-04-25T01:23:41.407Z,39.40
2018-04-25T01:26:08.452Z,39.27
2018-04-25T01:28:40.620Z,41.90
2018-04-25T01:31:09.619Z,45.17
2018-04-25T01:33:38.722Z,40.37
2018-04-25T01:36:06.579Z,40.00
2018-04-25T01:38:33.731Z,38.80
2018-04-25T01:41:06.622Z,48.23
2018-04-25T01:43:33.663Z,40.73
2018-04-25T01:46:19.245Z,42.07
2018-04-25T01:49:01.144Z,41.63
2018-04-25T01:51:34.335Z,39.47
2018-04-25T01:54:07.119Z,40.00
2018-04-25T01:56:40.106Z,36.30
2018-04-25T01:59:12.992Z,38.23
2018-04-25T02:01:39.739Z,35.67
2018-04-25T02:04:06.743Z,39.30
2018-04-25T02:06:33.782Z,36.00
2018-04-25T02:09:00.832Z,35.33
2018-04-25T02:11:27.884Z,34.03
2018-04-25T02:13:54.926Z,37.97
2018-04-25T02:16:21.975Z,35.67
2018-04-25T02:18:49.032Z,38.70
2018-04-25T02:21:16.272Z,31.37
2018-04-25T02:23:43.331Z,34.90
2018-04-25T02:26:10.374Z,36.47
2018-04-25T02:28:37.424Z,36.07
2018-04-25T02:31:04.477Z,31.03
2018-04-25T02:36:29.295Z,34.43
2018-04-25T02:38:56.347Z,29.70
2018-04-25T02:41:23.390Z,31.97
2018-04-25T02:43:50.447Z,32.50
2018-04-25T02:46:17.490Z,28.17
2018-04-25T02:48:44.531Z,26.30
2018-04-25T02:51:11.587Z,30.80
2018-04-25T02:53:38.528Z,23.87
2018-04-25T02:56:05.576Z,26.13
2018-04-25T02:58:33.963Z,25.77
2018-04-25T03:01:01.011Z,24.03
2018-04-25T03:03:28.051Z,27.27
2018-04-25T03:05:56.540Z,27.33
2018-04-25T03:08:23.585Z,24.00
2018-04-25T03:10:50.632Z,22.17
2018-04-25T03:13:18.343Z,26.33
2018-04-25T03:15:45.344Z,23.83
2018-04-25T03:18:12.391Z,24.53
2018-04-25T03:20:39.339Z,25.83
2018-04-25T03:23:06.387Z,25.47
2018-04-25T03:25:33.443Z,27.77
2018-04-25T03:28:01.512Z,23.73
2018-04-25T03:30:28.664Z,23.07
2018-04-25T03:32:55.708Z,25.63
2018-04-25T03:35:22.756Z,24.97
2018-04-25T03:37:49.747Z,24.13
2018-04-25T03:40:16.751Z,23.47
2018-04-25T03:42:43.804Z,23.60
2018-04-25T03:45:10.770Z,23.80
2018-04-25T03:47:37.800Z,27.50
2018-04-25T03:50:05.873Z,23.20
2018-04-25T03:52:32.915Z,24.47
2018-04-25T03:54:59.965Z,22.00
2018-04-25T03:57:27.017Z,22.30
2018-04-25T03:59:54.065Z,20.07
2018-04-25T04:02:21.115Z,22.47
2018-04-25T04:04:48.165Z,20.30
2018-04-25T04:07:15.206Z,23.47
2018-04-25T04:09:42.256Z,20.63
2018-04-25T04:12:09.309Z,19.93
2018-04-25T04:14:36.352Z,20.40
2018-04-25T04:17:03.401Z,20.40
2018-04-25T04:19:30.455Z,24.83
2018-04-25T04:21:57.498Z,20.00
2018-04-25T04:24:24.546Z,21.70
2018-04-25T04:26:51.600Z,20.10
2018-04-25T04:29:18.596Z,21.57
2018-04-25T04:31:45.595Z,23.40
2018-04-25T04:34:13.457Z,20.47
2018-04-25T04:36:40.711Z,21.90
2018-04-25T04:39:07.810Z,23.00
2018-04-25T04:41:34.814Z,21.30
2018-04-25T04:44:01.870Z,24.23
2018-04-25T04:46:28.904Z,24.60
2018-04-25T04:48:55.959Z,22.17
2018-04-25T04:51:23.003Z,21.20
2018-04-25T04:53:50.053Z,23.20
2018-04-25T04:56:18.230Z,22.50
2018-04-25T04:58:45.278Z,20.63
2018-04-25T05:01:12.330Z,21.17
2018-04-25T05:03:39.373Z,19.20
2018-04-25T05:06:06.733Z,24.30
2018-04-25T05:08:33.753Z,21.87
2018-04-25T05:11:00.825Z,20.27
2018-04-25T05:16:30.455Z,19.53
2018-04-25T05:19:14.233Z,20.67
2018-04-25T05:21:55.270Z,20.37
2018-04-25T05:24:22.378Z,19.43
2018-04-25T05:26:49.370Z,17.30
2018-04-25T05:29:17.466Z,16.23
2018-04-25T05:31:45.064Z,18.10
2018-04-25T05:34:12.053Z,22.10
2018-04-25T05:36:39.127Z,19.53
2018-04-25T05:39:06.149Z,19.87
2018-04-25T05:41:34.426Z,20.50
2018-04-25T05:44:01.480Z,16.67
2018-04-25T05:46:28.521Z,17.63
2018-04-25T05:48:55.574Z,15.97
2018-04-25T05:51:22.625Z,17.20
2018-04-25T05:53:49.668Z,16.53
2018-04-25T05:56:16.716Z,16.30
2018-04-25T05:58:43.770Z,16.20
2018-04-25T06:01:11.734Z,17.07
2018-04-25T06:03:38.784Z,15.47
2018-04-25T06:06:06.145Z,15.90
2018-04-25T06:08:33.188Z,19.53
2018-04-25T06:11:00.236Z,16.17
2018-04-25T06:13:27.291Z,18.70
2018-04-25T06:15:56.747Z,16.23
2018-04-25T06:18:23.840Z,16.83
2018-04-25T06:20:50.895Z,15.23
2018-04-25T06:23:17.937Z,14.87
2018-04-25T06:25:44.989Z,16.23
2018-04-25T06:28:13.217Z,14.03
2018-04-25T06:30:41.349Z,14.63
2018-04-25T06:33:08.387Z,15.10
2018-04-25T06:35:35.438Z,19.93
2018-04-25T06:38:02.489Z,23.10
2018-04-25T06:40:29.531Z,25.47
2018-04-25T06:42:57.519Z,26.80
2018-04-25T06:45:24.555Z,22.97
2018-04-25T06:47:52.725Z,22.47
2018-04-25T06:50:19.777Z,22.90
2018-04-25T06:52:46.820Z,22.80
2018-04-25T06:55:13.871Z,24.40
2018-04-25T06:57:41.540Z,17.60
2018-04-25T07:00:08.583Z,19.70
2018-04-25T07:02:35.532Z,19.60
2018-04-25T07:05:02.575Z,19.10
2018-04-25T07:07:30.647Z,18.40
2018-04-25T07:09:58.417Z,23.43
2018-04-25T07:12:25.462Z,17.50
2018-04-25T07:14:52.515Z,19.20
2018-04-25T07:17:19.501Z,17.67
2018-04-25T07:19:46.518Z,17.87
2018-04-25T07:22:13.555Z,19.53
2018-04-25T07:24:40.813Z,19.57
2018-04-25T07:27:07.855Z,21.10
2018-04-25T07:29:34.910Z,21.17
2018-04-25T07:32:01.899Z,24.53
2018-04-25T07:34:28.901Z,15.90
2018-04-25T07:36:57.657Z,24.37
2018-04-25T07:39:24.641Z,23.17
2018-04-25T07:41:52.959Z,19.07
2018-04-25T07:44:19.962Z,17.80
2018-04-25T07:46:47.830Z,18.27
2018-04-25T07:49:14.881Z,20.30
2018-04-25T07:51:41.934Z,17.43
2018-04-25T07:54:09.085Z,19.13
2018-04-25T07:56:36.127Z,21.23
2018-04-25T07:59:03.177Z,23.90
2018-04-25T08:01:30.233Z,20.53
2018-04-25T08:03:57.271Z,19.07
2018-04-25T08:06:24.320Z,18.37
2018-04-25T08:08:51.573Z,20.50
2018-04-25T08:11:18.636Z,25.67
2018-04-25T08:13:52.019Z,19.03
2018-04-25T08:16:25.008Z,27.97
2018-04-25T08:18:57.997Z,26.13
2018-04-25T08:21:43.579Z,30.23
2018-04-25T08:24:11.759Z,19.80
2018-04-25T08:26:38.758Z,22.03
2018-04-25T08:29:05.754Z,21.13
2018-04-25T08:31:33.661Z,23.27
2018-04-25T08:34:00.670Z,19.97
2018-04-25T08:36:27.825Z,21.80
2018-04-25T08:38:55.071Z,17.43
2018-04-25T08:41:22.125Z,23.30
2018-04-25T08:43:49.166Z,21.17
2018-04-25T08:46:16.317Z,17.73
2018-04-25T08:48:44.289Z,23.00
2018-04-25T08:51:11.342Z,16.23
2018-04-25T08:53:38.385Z,18.63
2018-04-25T08:56:05.434Z,23.90
2018-04-25T08:58:32.488Z,20.30
2018-04-25T09:00:59.532Z,18.80
2018-04-25T09:03:26.580Z,18.53
2018-04-25T09:05:53.658Z,17.73
2018-04-25T09:08:20.678Z,20.17
2018-04-25T09:10:47.934Z,20.88
2018-04-25T09:13:14.966Z,19.33
2018-04-25T09:15:42.025Z,16.65
2018-04-25T09:18:09.080Z,15.25
2018-04-25T09:20:36.079Z,17.73
2018-04-25T09:23:03.077Z,18.30
2018-04-25T09:25:30.118Z,22.05
2018-04-25T09:27:57.168Z,18.08
2018-04-25T09:30:24.221Z,16.12
2018-04-25T09:32:51.263Z,16.60
2018-04-25T09:35:18.169Z,14.07
2018-04-25T09:37:45.259Z,13.40
2018-04-25T09:40:13.230Z,17.92
2018-04-25T09:42:40.284Z,19.87
2018-04-25T09:45:07.435Z,15.35
2018-04-25T09:47:34.478Z,18.25
2018-04-25T09:50:01.429Z,17.60
2018-04-25T09:52:28.471Z,16.83
2018-04-25T09:54:55.522Z,19.05
2018-04-25T09:57:23.776Z,22.10
2018-04-25T09:59:51.737Z,16.60
2018-04-25T10:02:24.451Z,19.92
2018-04-25T10:04:51.498Z,24.10
2018-04-25T10:07:19.264Z,16.87
2018-04-25T10:09:46.319Z,15.55
2018-04-25T10:12:13.362Z,19.17
2018-04-25T10:14:40.411Z,16.10
2018-04-25T10:17:07.487Z,14.07
2018-04-25T10:19:34.615Z,16.52
2018-04-25T10:22:01.766Z,14.30
2018-04-25T10:24:28.809Z,15.23
2018-04-25T10:26:55.858Z,15.60
2018-04-25T10:29:22.911Z,16.67
2018-04-25T10:31:49.899Z,14.90
2018-04-25T10:34:16.907Z,14.85
2018-04-25T10:36:43.950Z,15.52
2018-04-25T10:39:11.102Z,17.50
2018-04-25T10:41:39.174Z,14.77
2018-04-25T10:44:06.225Z,14.43
2018-04-25T10:46:34.401Z,14.45
2018-04-25T10:49:01.451Z,19.25
2018-04-25T10:51:28.501Z,15.93
2018-04-25T10:53:55.652Z,15.95
2018-04-25T10:56:23.519Z,16.77
2018-04-25T10:58:50.664Z,18.75
2018-04-25T11:01:17.735Z,21.83
2018-04-25T11:03:44.770Z,15.18
2018-04-25T11:06:11.810Z,11.02
2018-04-25T11:08:38.864Z,13.82
2018-04-25T11:11:09.844Z,14.57
2018-04-25T11:13:37.827Z,19.87
2018-04-25T11:16:04.762Z,13.62
2018-04-25T11:18:31.968Z,18.00
2018-04-25T11:20:59.630Z,16.33
2018-04-25T11:23:26.684Z,13.27
2018-04-25T11:25:53.835Z,10.13
2018-04-25T11:28:20.877Z,12.57
2018-04-25T11:30:48.028Z,11.20
2018-04-25T11:33:15.180Z,12.37
2018-04-25T11:35:42.228Z,11.95
2018-04-25T11:38:10.818Z,10.90
2018-04-25T11:40:37.812Z,10.35
2018-04-25T11:43:05.320Z,11.98
2018-04-25T11:45:32.367Z,18.83
2018-04-25T11:47:59.313Z,12.48
2018-04-25T11:50:26.670Z,15.85
2018-04-25T11:52:53.724Z,19.42
2018-04-25T11:55:20.766Z,12.35
2018-04-25T11:57:47.919Z,11.43
2018-04-25T12:00:14.913Z,17.17
2018-04-25T12:02:41.913Z,16.92
2018-04-25T12:05:09.269Z,12.65
2018-04-25T12:07:36.367Z,13.25
2018-04-25T12:10:03.366Z,17.05
2018-04-25T12:12:30.517Z,13.88
2018-04-25T12:14:57.572Z,12.65
2018-04-25T12:17:24.555Z,16.62
2018-04-25T12:19:52.077Z,16.17
2018-04-25T12:22:19.123Z,19.42
2018-04-25T12:24:46.169Z,14.43
2018-04-25T12:27:13.320Z,15.93
2018-04-25T12:29:40.391Z,24.00
2018-04-25T12:32:07.417Z,12.20
2018-04-25T12:34:34.411Z,12.25
2018-04-25T12:37:02.334Z,14.40
2018-04-25T12:39:29.382Z,15.23
2018-04-25T12:41:56.435Z,21.27
2018-04-25T12:44:23.428Z,17.62
2018-04-25T12:46:50.431Z,16.77
2018-04-25T12:49:17.476Z,17.45
2018-04-25T12:51:44.528Z,16.40
2018-04-25T12:54:11.577Z,17.33
2018-04-25T12:56:38.620Z,18.98
2018-04-25T12:59:06.801Z,17.73
2018-04-25T13:01:33.879Z,17.37
2018-04-25T13:04:00.891Z,16.12
2018-04-25T13:06:27.945Z,14.15
2018-04-25T13:08:55.182Z,15.05
2018-04-25T13:11:22.146Z,16.92
2018-04-25T13:13:49.126Z,24.08
2018-04-25T13:16:16.087Z,23.95
2018-04-25T13:18:43.285Z,21.40
2018-04-25T13:21:10.335Z,21.08
2018-04-25T13:23:37.388Z,19.60
2018-04-25T13:26:05.250Z,21.25
2018-04-25T13:28:32.310Z,15.35
2018-04-25T13:30:59.348Z,17.23
2018-04-25T13:33:27.220Z,18.35
2018-04-25T13:35:54.264Z,16.55
2018-04-25T13:38:21.316Z,15.63
2018-04-25T13:40:49.079Z,21.87
2018-04-25T13:43:16.643Z,25.70
2018-04-25T13:45:43.687Z,20.98
2018-04-25T13:48:11.762Z,24.17
2018-04-25T13:50:38.814Z,25.08
2018-04-25T13:53:06.164Z,28.73
2018-04-25T13:55:33.213Z,29.40
2018-04-25T13:58:00.269Z,30.52
2018-04-25T14:00:27.821Z,28.52
2018-04-25T14:02:54.877Z,31.25
2018-04-25T14:05:21.923Z,24.58
2018-04-25T14:07:48.967Z,22.55
2018-04-25T14:10:16.993Z,21.50
2018-04-25T14:12:43.987Z,30.25
2018-04-25T14:15:11.037Z,26.17
2018-04-25T14:17:38.025Z,20.42
2018-04-25T14:20:05.132Z,21.55
2018-04-25T14:22:32.180Z,26.23
2018-04-25T14:24:59.238Z,18.83
2018-04-25T14:27:26.277Z,28.62
2018-04-25T14:29:53.327Z,25.25
2018-04-25T14:32:20.380Z,19.23
2018-04-25T14:34:47.424Z,16.50
2018-04-25T14:37:14.472Z,20.05
2018-04-25T14:39:41.420Z,14.75
2018-04-25T14:42:08.469Z,14.77
2018-04-25T14:44:35.520Z,21.65
2018-04-25T14:47:02.565Z,21.95
2018-04-25T14:49:29.614Z,19.48
2018-04-25T14:51:56.667Z,18.20
2018-04-25T14:54:23.713Z,20.83
2018-04-25T14:56:50.765Z,19.33
2018-04-25T14:59:17.813Z,23.85
2018-04-25T15:01:44.964Z,22.25
2018-04-25T15:04:12.007Z,18.60
2018-04-25T15:06:39.002Z,18.10
2018-04-25T15:09:06.822Z,20.33
2018-04-25T15:11:33.973Z,21.00
2018-04-25T15:14:01.025Z,19.55
2018-04-25T15:16:28.070Z,22.95
2018-04-25T15:18:55.116Z,20.55
2018-04-25T15:21:22.171Z,21.67
2018-04-25T15:23:49.628Z,18.50
2018-04-25T15:26:16.673Z,25.15
2018-04-25T15:28:44.545Z,24.48
2018-04-25T15:31:11.589Z,26.05
2018-04-25T15:33:38.499Z,27.73
2018-04-25T15:36:05.481Z,31.42
2018-04-25T15:38:32.534Z,26.98
2018-04-25T15:40:59.578Z,33.20
2018-04-25T15:43:26.574Z,28.42
2018-04-25T15:45:53.573Z,31.92
2018-04-25T15:48:20.621Z,31.27
2018-04-25T15:50:47.773Z,34.92
2018-04-25T15:53:14.833Z,34.45
2018-04-25T15:55:41.869Z,42.70
2018-04-25T15:58:09.635Z,38.95
2018-04-25T16:00:36.684Z,37.38
2018-04-25T16:03:03.742Z,31.23
2018-04-25T16:05:30.787Z,38.25
2018-04-25T16:07:57.939Z,37.80
2018-04-25T16:10:24.982Z,31.90
2018-04-25T16:12:52.959Z,28.23
2018-04-25T16:15:20.010Z,28.15
2018-04-25T16:17:47.060Z,26.75
2018-04-25T16:20:14.103Z,37.88
2018-04-25T16:22:41.146Z,26.35
2018-04-25T16:25:09.019Z,28.42
2018-04-25T16:27:36.170Z,30.37
2018-04-25T16:30:03.158Z,31.52
2018-04-25T16:32:30.165Z,25.83
2018-04-25T16:34:57.212Z,26.62
2018-04-25T16:37:24.261Z,26.90
2018-04-25T16:39:51.512Z,29.17
2018-04-25T16:42:18.561Z,22.13
2018-04-25T16:44:45.613Z,26.02
2018-04-25T16:47:12.656Z,28.33
2018-04-25T16:49:39.916Z,24.17
2018-04-25T16:52:06.960Z,23.10
2018-04-25T16:54:34.722Z,27.98
2018-04-25T16:57:02.161Z,32.83
2018-04-25T16:59:29.234Z,26.37
2018-04-25T17:01:56.381Z,22.37
2018-04-25T17:04:23.434Z,22.50
2018-04-25T17:06:51.821Z,22.05
2018-04-25T17:09:18.857Z,24.50
2018-04-25T17:11:46.781Z,24.35
2018-04-25T17:14:14.805Z,24.55
2018-04-25T17:16:41.800Z,23.67
2018-04-25T17:19:16.490Z,24.80
2018-04-25T17:21:43.521Z,23.05
2018-04-25T17:24:10.573Z,24.23
2018-04-25T17:26:37.933Z,18.30
2018-04-25T17:29:04.976Z,20.17
2018-04-25T17:31:32.024Z,25.85
2018-04-25T17:33:59.077Z,22.75
2018-04-25T17:36:26.120Z,20.67
2018-04-25T17:38:53.271Z,20.27
2018-04-25T17:41:20.898Z,20.50
2018-04-25T17:43:47.909Z,24.40
2018-04-25T17:46:14.929Z,24.73
2018-04-25T17:48:41.984Z,18.80
2018-04-25T17:51:09.072Z,23.33
2018-04-25T17:53:36.737Z,24.63
2018-04-25T17:56:04.149Z,20.60
2018-04-25T17:58:31.204Z,24.75
2018-04-25T18:00:58.223Z,23.83
2018-04-25T18:03:25.571Z,22.20
2018-04-25T18:05:52.546Z,17.17
2018-04-25T18:08:19.596Z,21.87
2018-04-25T18:10:47.773Z,19.05
2018-04-25T18:13:14.817Z,18.55
2018-04-25T18:15:41.872Z,25.37
2018-04-25T18:18:09.814Z,15.50
2018-04-25T18:20:36.888Z,19.25
2018-04-25T18:23:03.941Z,17.85
2018-04-25T18:25:31.189Z,17.98
2018-04-25T18:27:58.182Z,21.33
2018-04-25T18:30:25.291Z,19.42
2018-04-25T18:32:52.402Z,16.42
2018-04-25T18:35:19.388Z,20.17
2018-04-25T18:37:46.686Z,18.27
2018-04-25T18:40:13.690Z,14.35
2018-04-25T18:42:41.860Z,27.98
2018-04-25T18:45:08.918Z,21.42
2018-04-25T18:47:36.164Z,15.98
2018-04-25T18:50:03.928Z,19.90
2018-04-25T18:52:30.982Z,18.65
2018-04-25T18:54:58.984Z,23.85
2018-04-25T18:57:27.059Z,23.17
2018-04-25T18:59:54.278Z,15.90
2018-04-25T19:02:23.093Z,22.95
2018-04-25T19:04:50.116Z,19.87
2018-04-25T19:07:17.365Z,22.87
2018-04-25T19:09:45.955Z,14.32
2018-04-25T19:12:13.005Z,20.92
2018-04-25T19:14:40.147Z,23.95
2018-04-25T19:17:07.605Z,21.27
2018-04-25T19:19:35.268Z,13.20
2018-04-25T19:22:02.323Z,17.37
2018-04-25T19:24:30.185Z,16.85
2018-04-25T19:26:57.259Z,18.73
2018-04-25T19:29:24.284Z,14.40
2018-04-25T19:31:51.744Z,19.40
2018-04-25T19:34:18.692Z,18.12
2018-04-25T19:36:46.769Z,17.62
2018-04-25T19:39:13.811Z,15.00
2018-04-25T19:41:40.856Z,17.50
2018-04-25T19:44:07.909Z,17.95
2018-04-25T19:46:37.081Z,26.02
2018-04-25T19:49:04.366Z,14.07
2018-04-25T19:51:32.327Z,20.37
2018-04-25T19:53:59.376Z,13.88
2018-04-25T19:56:26.430Z,15.60
2018-04-25T19:58:54.195Z,15.73
2018-04-25T20:01:22.267Z,21.67
2018-04-25T20:03:49.311Z,21.50
2018-04-25T20:06:16.410Z,17.77
2018-04-25T20:08:43.511Z,28.47
2018-04-25T20:11:10.566Z,15.15
2018-04-25T20:13:38.367Z,18.10
2018-04-25T20:16:05.373Z,17.23
2018-04-25T20:18:33.445Z,19.17
2018-04-25T20:21:00.523Z,16.60
2018-04-25T20:23:27.549Z,28.97
2018-04-25T20:25:54.592Z,21.50
2018-04-25T20:28:22.773Z,19.00
2018-04-25T20:30:49.816Z,22.10
2018-04-25T20:33:16.864Z,17.53
2018-04-25T20:35:44.371Z,21.63
2018-04-25T20:38:11.377Z,24.37
2018-04-25T20:40:38.292Z,18.97
2018-04-25T20:43:05.263Z,17.97
2018-04-25T20:45:32.271Z,17.70
2018-04-25T20:47:59.366Z,17.27
2018-04-25T20:50:26.518Z,20.17
2018-04-25T20:52:53.563Z,21.87
2018-04-25T20:55:20.610Z,24.50
2018-04-25T20:57:48.477Z,22.53
2018-04-25T21:00:15.528Z,25.53
2018-04-25T21:02:42.983Z,19.53
2018-04-25T21:05:09.931Z,21.97
2018-04-25T21:07:36.980Z,19.17
2018-04-25T21:10:04.743Z,22.23
2018-04-25T21:12:32.105Z,21.17
2018-04-25T21:14:59.148Z,19.23
2018-04-25T21:17:26.250Z,20.80
2018-04-25T21:19:53.249Z,20.40
2018-04-25T21:22:20.242Z,23.17
2018-04-25T21:24:47.350Z,29.10
2018-04-25T21:27:14.597Z,19.93
2018-04-25T21:29:41.645Z,21.23
2018-04-25T21:32:08.698Z,19.20
2018-04-25T21:34:36.771Z,19.73
2018-04-25T21:37:03.813Z,20.17
2018-04-25T21:39:30.861Z,21.07
2018-04-25T21:41:57.916Z,18.10
2018-04-25T21:44:24.960Z,20.90
2018-04-25T21:46:52.009Z,17.87
2018-04-25T21:49:19.063Z,18.97
2018-04-25T21:51:47.442Z,21.20
2018-04-25T21:54:14.483Z,22.43
2018-04-25T21:56:41.534Z,19.23
2018-04-25T21:59:08.589Z,16.40
2018-04-25T22:01:35.632Z,18.63
2018-04-25T22:04:02.680Z,18.07
2018-04-25T22:06:29.734Z,19.57
2018-04-25T22:08:56.778Z,16.87
2018-04-25T22:11:23.928Z,17.80
2018-04-25T22:13:50.977Z,17.03
2018-04-25T22:16:18.389Z,16.73
2018-04-25T22:18:45.489Z,20.10
2018-04-25T22:21:12.531Z,19.60
2018-04-25T22:23:39.601Z,20.43
2018-04-25T22:26:06.637Z,17.30
2018-04-25T22:28:33.683Z,20.97
2018-04-25T22:31:02.250Z,21.40
2018-04-25T22:33:29.318Z,21.77
2018-04-25T22:35:56.366Z,19.03
2018-04-25T22:38:23.408Z,21.57
2018-04-25T22:40:50.517Z,19.47
2018-04-25T22:43:17.617Z,16.90
2018-04-25T22:45:44.554Z,22.00
2018-04-25T22:48:11.608Z,15.20
2018-04-25T22:50:38.855Z,18.40
2018-04-25T22:53:06.831Z,19.20
2018-04-25T22:55:33.875Z,15.00
2018-04-25T22:58:01.587Z,20.93
2018-04-25T23:00:28.592Z,16.77
2018-04-25T23:02:55.635Z,25.17
2018-04-25T23:05:22.685Z,16.30
2018-04-25T23:07:49.737Z,15.57
2018-04-25T23:10:16.780Z,18.27
2018-04-25T23:12:43.830Z,15.03
2018-04-25T23:15:10.884Z,16.33
2018-04-25T23:17:37.928Z,17.97
2018-04-25T23:20:04.975Z,12.17
2018-04-25T23:22:32.030Z,15.27
2018-04-25T23:24:59.808Z,15.20
2018-04-25T23:27:26.787Z,16.47
2018-04-25T23:29:54.809Z,17.33
2018-04-25T23:32:21.862Z,17.00
2018-04-25T23:34:48.905Z,16.47
2018-04-25T23:37:15.953Z,19.70
2018-04-25T23:39:43.006Z,19.70
2018-04-25T23:42:10.052Z,14.97
2018-04-25T23:44:37.617Z,18.87
2018-04-25T23:47:04.712Z,14.57
2018-04-25T23:49:31.811Z,16.40
2018-04-25T23:51:58.859Z,19.30
2018-04-25T23:54:25.912Z,17.20
2018-04-25T23:56:53.264Z,19.87
2018-04-25T23:59:20.314Z,17.57
